• Join FlightAware (Why Join?)
  • Login
  • US Flag 
01:21PM EDT


 

Airport Tracker/Info


-or-


 

Live Flight TrackerFlight Track Log ✈ UAL4663 ✈ 18-Apr-2013 ✈ KRDU - KEWR

Flight Track Log - Related Links

Times and Time Zones

All times are in EDT time to prevent confusion due to time zone crossing. See the UAL4663 flight status page for this flight to view local times or setup timezone preferences in your user account.

Time Position Orientation Groundspeed Altitude Reporting Facility
EDT Latitude Longitude Course Direction KTS MPH feet Rate Location/Type
09:04PM 35.8381 -78.8614 232° Southwest 178 205 3,500  Level Washington Center
09:05PM 35.8869 -78.9019 326° Northwest 294 338 6,000 2,040 Climbing Washington Center
09:07PM 36.2093 -78.6508 19° North  Level FlightAware Approximate
09:07PM 35.9781 -78.8517 24° Northeast 319 367 8,400  Level Washington Center
09:08PM 36.2957 -78.6181 15° North  Level FlightAware Approximate
09:08PM 36.0522 -78.8086 25° Northeast 297 342 10,700  Level Washington Center
09:09PM 36.1350 -78.7606 25° Northeast 302 348 12,000 1,320 Climbing Washington Center
09:10PM 36.2156 -78.7122 26° Northeast 338 389 13,400 1,500 Climbing Washington Center
09:11PM 36.3131 -78.6517 27° Northeast 348 400 15,100 1,440 Climbing Washington Center
09:12PM 36.3978 -78.6033 25° Northeast 353 406 16,300 1,260 Climbing Washington Center
09:13PM 36.5094 -78.5586 18° North 366 421 17,700 1,620 Climbing Washington Center
09:14PM 36.6106 -78.5264 14° North 371 427 19,600 2,100 Climbing Washington Center
09:15PM 36.7053 -78.4858 19° North 371 427 21,900 1,920 Climbing Washington Center
09:16PM 36.7964 -78.4322 25° Northeast 361 415 23,500 1,020 Climbing Washington Center
09:17PM 36.8856 -78.3600 33° Northeast 361 415 24,000 240 Climbing Washington Center
09:18PM 36.9856 -78.2778 33° Northeast 394 453 24,000  Level Washington Center
09:19PM 37.0811 -78.1978 34° Northeast 434 499 24,000  Level Washington Center
09:20PM 37.1981 -78.1028 33° Northeast 449 517 24,000 60 Level Washington Center
09:21PM 37.3125 -78.0100 33° Northeast 463 533 24,200 600 Climbing Washington Center
09:22PM 37.4208 -77.9192 34° Northeast 473 544 25,200 960 Climbing Washington Center
09:23PM 37.5267 -77.8308 33° Northeast 468 539 26,200 960 Climbing Washington Center
09:24PM 37.6264 -77.7392 36° Northeast 457 526 27,200 1,020 Climbing Washington Center
09:25PM 37.7261 -77.6475 36° Northeast 452 520 28,300 900 Climbing Washington Center
09:26PM 37.8233 -77.5633 34° Northeast 440 506 29,000 300 Climbing Washington Center
09:27PM 37.9269 -77.4689 36° Northeast 440 506 29,000  Level Washington Center
09:28PM 38.0117 -77.3892 37° Northeast 452 520 29,000  Level Washington Center
09:29PM 38.1258 -77.2864 35° Northeast 458 527 29,000  Level Washington Center
09:30PM 38.2483 -77.1703 37° Northeast 481 554 29,000  Level Washington Center
09:31PM 38.3433 -77.0847 35° Northeast 486 559 29,000  Level Washington Center
09:32PM 38.4486 -76.9836 37° Northeast 480 552 29,000  Level Washington Center
09:33PM 38.5689 -76.8717 36° Northeast 486 559 29,000  Level Washington Center
09:34PM 38.6783 -76.7725 35° Northeast 481 554 29,000  Level Washington Center
09:35PM 38.7772 -76.6594 42° Northeast 481 554 29,000  Level Washington Center
09:36PM 38.8761 -76.5436 42° Northeast 481 554 29,000  Level Washington Center
09:37PM 38.9750 -76.4328 41° Northeast 476 548 29,000  Level Washington Center
09:38PM 39.0739 -76.3161 42° Northeast 471 542 29,000  Level Washington Center
09:39PM 39.1744 -76.1967 43° Northeast 471 542 29,000 -900 Level Washington Center
09:40PM 39.2667 -76.1008 39° Northeast 483 556 27,200 -1,020 Descending Washington Center
09:41PM 39.3608 -75.9889 43° Northeast 470 541 27,000 -300 Descending Washington Center
09:42PM 39.4550 -75.8711 44° Northeast 465 535 26,700 -1,080 Descending Washington Center
09:43PM 39.5656 -75.7450 41° Northeast 465 535 24,900 -1,920 Descending Washington Center
09:44PM 39.6614 -75.6292 43° Northeast 470 541 22,900 -2,040 Descending Washington Center
09:45PM 39.7572 -75.5133 43° Northeast 470 541 20,900 -2,280 Descending Washington Center
09:46PM 39.8489 -75.4050 42° Northeast 470 541 18,400 -2,400 Descending Washington Center
09:47PM 39.9361 -75.2992 43° Northeast 454 522 16,100 -2,340 Descending Washington Center
09:48PM 40.0192 -75.1958 44° Northeast 426 490 13,800 -2,280 Descending Washington Center
09:49PM 40.1019 -75.0953 43° Northeast 410 472 11,600 -1,800 Descending Washington Center
09:49PM 40.1667 -75.0167 43° Northeast 395 455 10,800 -1,380 Descending New York TRACON
09:50PM 40.2333 -74.9333 44° Northeast 335 386 9,300 -1,500 Descending New York TRACON
09:51PM 40.2833 -74.8667 45° Northeast 319 367 8,000 -900 Descending New York TRACON
09:52PM 40.3500 -74.7667 49° Northeast 308 354 7,500 -900 Descending New York TRACON
09:53PM 40.4000 -74.7000 45° Northeast 306 352 6,300 -780 Descending New York TRACON
09:54PM 40.4833 -74.6500 25° Northeast 303 349 6,000 -180 Descending New York TRACON
09:55PM 40.5667 -74.6333 North 306 352 6,000  Level New York TRACON
09:56PM 40.6500 -74.6167 North 314 361 6,000  Level New York TRACON
09:57PM 40.7333 -74.6000 North 308 354 6,000  Level New York TRACON
09:58PM 40.8000 -74.6333 339° North 267 307 6,000  Level New York TRACON
09:59PM 40.8833 -74.6500 351° North 272 313 6,000  Level New York TRACON
10:00PM 40.9667 -74.6667 351° North 271 312 6,000  Level New York TRACON
10:01PM 41.0333 -74.6833 349° North 271 312 6,000 -180 Level New York TRACON
10:02PM 41.0667 -74.6000 62° Northeast 271 312 5,700 -540 Descending New York TRACON
10:03PM 41.0833 -74.5167 75° East 258 297 5,000 -360 Descending New York TRACON
10:04PM 41.0667 -74.4333 105° East 214 246 5,000  Level New York TRACON
10:05PM 41.0500 -74.3500 105° East 218 251 5,000 -60 Level New York TRACON
10:06PM 41.0333 -74.2833 108° East 213 245 4,900 -540 Descending New York TRACON
10:07PM 41.0000 -74.2167 124° Southeast 204 235 4,000 -480 Descending New York TRACON
10:08PM 40.9833 -74.1500 108° East 208 239 4,000 -240 Level New York TRACON
10:09PM 40.9333 -74.1000 143° Southeast 180 207 3,600 -540 Descending New York TRACON
10:10PM 40.9000 -74.0833 159° South 165 190 3,000 -300 Descending New York TRACON
10:11PM 40.8500 -74.0833 180° South 160 184 3,000 -300 Level New York TRACON
10:12PM 40.8167 -74.0833 180° South 150 173 2,500 -600 Descending New York TRACON
10:13PM 40.7667 -74.1167 207° Southwest 152 175 1,800 -720 Descending New York TRACON
10:14PM 40.7500 -74.1333 217° Southwest 110 127 1,100 -720 Descending New York TRACON